createdAt,value
2022-11-07T00:00:21.224Z,99531.52
2022-11-07T00:03:34.628Z,99526.16
2022-11-07T00:06:56.234Z,99527.53
2022-11-07T00:10:13.435Z,99528.58
2022-11-07T00:13:15.394Z,99530.27
2022-11-07T00:16:17.375Z,99527.77
2022-11-07T00:19:20.191Z,99537.05
2022-11-07T00:22:22.066Z,99546.81
2022-11-07T00:25:23.565Z,99553.64
2022-11-07T00:28:25.166Z,99537.83
2022-11-07T00:31:26.776Z,99546.58
2022-11-07T00:34:28.423Z,99551.52
2022-11-07T00:37:29.988Z,99538.23
2022-11-07T00:40:31.604Z,99532.30
2022-11-07T00:43:33.537Z,99536.46
2022-11-07T00:46:35.054Z,99531.27
2022-11-07T00:49:36.735Z,99531.20
2022-11-07T00:52:38.335Z,99533.23
2022-11-07T00:55:39.923Z,99529.88
2022-11-07T00:58:42.847Z,99528.48
2022-11-07T01:01:44.723Z,99527.31
2022-11-07T01:05:05.546Z,99519.83
2022-11-07T01:08:07.292Z,99516.37
2022-11-07T01:11:08.997Z,99512.73
2022-11-07T01:14:11.824Z,99506.33
2022-11-07T01:17:13.542Z,99512.40
2022-11-07T01:20:15.345Z,99512.19
2022-11-07T01:23:17.876Z,99506.06
2022-11-07T01:26:20.079Z,99506.16
2022-11-07T01:29:21.675Z,99506.09
2022-11-07T01:32:23.207Z,99504.08
2022-11-07T01:35:24.896Z,99499.19
2022-11-07T01:38:26.566Z,99494.58
2022-11-07T01:41:29.944Z,99494.69
2022-11-07T01:44:31.659Z,99489.41
2022-11-07T01:47:37.932Z,99485.81
2022-11-07T01:50:39.549Z,99479.46
2022-11-07T01:53:41.091Z,99477.82
2022-11-07T01:56:43.710Z,99473.39
2022-11-07T01:59:46.417Z,99472.68
2022-11-07T02:02:50.644Z,99461.56
2022-11-07T02:05:58.699Z,99457.09
2022-11-07T02:09:00.380Z,99455.77
2022-11-07T02:12:02.692Z,99450.86
2022-11-07T02:15:04.964Z,99454.20
2022-11-07T02:18:06.658Z,99449.06
2022-11-07T02:21:16.245Z,99449.66
2022-11-07T02:24:24.861Z,99446.72
2022-11-07T02:27:29.517Z,99448.31
2022-11-07T02:30:34.678Z,99443.93
2022-11-07T02:33:36.460Z,99441.70
2022-11-07T02:36:38.166Z,99438.27
2022-11-07T02:39:39.933Z,99435.42
2022-11-07T02:42:44.526Z,99441.45
2022-11-07T02:45:48.018Z,99438.71
2022-11-07T02:48:53.806Z,99441.29
2022-11-07T02:51:55.441Z,99440.36
2022-11-07T02:54:57.160Z,99446.65
2022-11-07T02:57:59.219Z,99444.30
2022-11-07T03:01:03.077Z,99441.17
2022-11-07T03:04:04.841Z,99442.00
2022-11-07T03:07:06.577Z,99445.17
2022-11-07T03:10:09.210Z,99442.77
2022-11-07T03:13:10.871Z,99442.16
2022-11-07T03:16:12.467Z,99446.01
2022-11-07T03:19:14.272Z,99448.90
2022-11-07T03:22:16.229Z,99444.86
2022-11-07T03:25:18.357Z,99441.02
2022-11-07T03:28:20.133Z,99441.41
2022-11-07T03:31:21.723Z,99437.04
2022-11-07T03:34:23.292Z,99438.79
2022-11-07T03:37:25.130Z,99441.31
2022-11-07T03:40:26.829Z,99442.62
2022-11-07T03:43:28.579Z,99443.00
2022-11-07T03:46:30.270Z,99440.15
2022-11-07T03:49:31.984Z,99443.00
2022-11-07T03:52:33.714Z,99446.11
2022-11-07T03:55:35.354Z,99442.16
2022-11-07T03:58:36.994Z,99441.66
2022-11-07T04:01:38.742Z,99438.00
2022-11-07T04:04:40.572Z,99440.09
2022-11-07T04:07:42.309Z,99442.50
2022-11-07T04:10:43.971Z,99431.16
2022-11-07T04:14:04.400Z,99428.44
2022-11-07T04:17:20.049Z,99430.30
2022-11-07T04:20:22.014Z,99426.90
2022-11-07T04:23:23.664Z,99425.00
2022-11-07T04:26:44.472Z,99425.98
2022-11-07T04:29:46.032Z,99419.20
2022-11-07T04:32:58.184Z,99418.98
2022-11-07T04:35:59.734Z,99423.91
2022-11-07T04:39:01.400Z,99423.36
2022-11-07T04:42:03.011Z,99425.32
2022-11-07T04:45:05.751Z,99422.27
2022-11-07T04:48:08.565Z,99418.81
2022-11-07T04:51:20.339Z,99419.08
2022-11-07T04:54:21.936Z,99413.60
2022-11-07T04:57:23.552Z,99410.64
2022-11-07T05:00:25.692Z,99408.84
2022-11-07T05:03:27.399Z,99408.23
2022-11-07T05:06:29.197Z,99408.95
2022-11-07T05:09:30.968Z,99414.23
2022-11-07T05:12:32.640Z,99413.30
2022-11-07T05:15:34.226Z,99407.88
2022-11-07T05:18:36.052Z,99411.24
2022-11-07T05:21:37.640Z,99405.73
2022-11-07T05:24:39.604Z,99400.37
2022-11-07T05:27:41.243Z,99399.66
2022-11-07T05:30:43.150Z,99399.44
2022-11-07T05:33:44.751Z,99397.08
2022-11-07T05:36:46.334Z,99395.41
2022-11-07T05:39:52.379Z,99393.39
2022-11-07T05:43:01.154Z,99399.86
2022-11-07T05:46:03.291Z,99399.29
2022-11-07T05:49:04.887Z,99409.88
2022-11-07T05:52:06.739Z,99412.36
2022-11-07T05:55:08.609Z,99409.95
2022-11-07T05:58:11.751Z,99415.17
2022-11-07T06:01:13.313Z,99418.37
2022-11-07T06:04:14.940Z,99418.74
2022-11-07T06:07:16.530Z,99415.80
2022-11-07T06:10:18.416Z,99420.00
2022-11-07T06:13:20.277Z,99424.20
2022-11-07T06:16:22.044Z,99425.63
2022-11-07T06:19:23.799Z,99425.56
2022-11-07T06:22:25.824Z,99426.23
2022-11-07T06:25:28.643Z,99430.61
2022-11-07T06:28:30.281Z,99431.81
2022-11-07T06:31:32.004Z,99439.20
2022-11-07T06:34:33.689Z,99446.62
2022-11-07T06:37:35.356Z,99457.35
2022-11-07T06:40:37.607Z,99468.77
2022-11-07T06:43:40.065Z,99467.33
2022-11-07T06:46:41.874Z,99467.77
2022-11-07T06:49:43.678Z,99474.08
2022-11-07T06:52:45.380Z,99477.35
2022-11-07T06:55:47.179Z,99473.82
2022-11-07T06:58:48.922Z,99478.83
2022-11-07T07:01:50.853Z,99480.05
2022-11-07T07:04:52.651Z,99482.31
2022-11-07T07:07:57.305Z,99480.58
2022-11-07T07:11:03.596Z,99483.15
2022-11-07T07:14:11.247Z,99484.57
2022-11-07T07:17:13.377Z,99483.17
2022-11-07T07:20:15.137Z,99485.46
2022-11-07T07:23:18.287Z,99483.48
2022-11-07T07:26:20.140Z,99481.56
2022-11-07T07:29:21.839Z,99488.05
2022-11-07T07:32:25.293Z,99485.85
2022-11-07T07:35:27.002Z,99482.88
2022-11-07T07:38:28.697Z,99483.25
2022-11-07T07:41:30.517Z,99478.66
2022-11-07T07:44:32.336Z,99471.75
2022-11-07T07:47:33.999Z,99469.74
2022-11-07T07:50:35.718Z,99471.09
2022-11-07T07:53:37.499Z,99472.83
2022-11-07T07:56:39.136Z,99471.67
2022-11-07T07:59:40.894Z,99473.05
2022-11-07T08:02:43.954Z,99475.70
2022-11-07T08:05:52.974Z,99474.52
2022-11-07T08:08:54.624Z,99478.67
2022-11-07T08:11:56.246Z,99472.58
2022-11-07T08:14:57.915Z,99469.21
2022-11-07T08:18:03.706Z,99467.23
2022-11-07T08:21:05.624Z,99466.54
2022-11-07T08:24:08.737Z,99462.16
2022-11-07T08:27:10.396Z,99464.15
2022-11-07T08:30:17.798Z,99464.86
2022-11-07T08:33:20.257Z,99466.61
2022-11-07T08:36:22.121Z,99471.81
2022-11-07T08:39:23.764Z,99471.50
2022-11-07T08:42:25.380Z,99471.27
2022-11-07T08:45:27.348Z,99473.79
2022-11-07T08:48:29.005Z,99472.59
2022-11-07T08:51:30.669Z,99472.05
2022-11-07T08:54:33.751Z,99474.73
2022-11-07T08:57:35.687Z,99472.87
2022-11-07T09:00:37.607Z,99472.40
2022-11-07T09:03:51.694Z,99472.75
2022-11-07T09:06:58.717Z,99471.50
2022-11-07T09:10:00.330Z,99477.52
2022-11-07T09:13:02.334Z,99473.87
2022-11-07T09:16:05.332Z,99478.56
2022-11-07T09:19:07.124Z,99472.52
2022-11-07T09:22:08.981Z,99475.34
2022-11-07T09:25:11.553Z,99477.23
2022-11-07T09:28:14.321Z,99481.45
2022-11-07T09:31:16.165Z,99473.71
2022-11-07T09:34:17.947Z,99479.34
2022-11-07T09:37:21.660Z,99478.44
2022-11-07T09:40:40.852Z,99486.96
2022-11-07T09:43:58.034Z,99485.23
2022-11-07T09:47:06.663Z,99492.40
2022-11-07T09:50:19.014Z,99497.05
2022-11-07T09:53:37.600Z,99497.64
2022-11-07T09:56:41.598Z,99497.34
2022-11-07T09:59:54.280Z,99495.10
2022-11-07T10:02:58.090Z,99492.63
2022-11-07T10:06:05.718Z,99494.85
2022-11-07T10:09:29.308Z,99490.99
2022-11-07T10:13:03.333Z,99490.31
2022-11-07T10:16:07.109Z,99493.56
2022-11-07T10:19:31.105Z,99494.25
2022-11-07T10:22:57.340Z,99494.56
2022-11-07T10:26:13.049Z,99494.98
2022-11-07T10:29:20.125Z,99496.00
2022-11-07T10:32:40.687Z,99493.29
2022-11-07T10:35:49.766Z,99486.84
2022-11-07T10:38:51.948Z,99482.98
2022-11-07T10:42:07.545Z,99479.43
2022-11-07T10:45:12.155Z,99477.08
2022-11-07T10:48:15.038Z,99478.47
2022-11-07T10:51:16.914Z,99482.70
2022-11-07T10:54:26.724Z,99483.77
2022-11-07T10:57:29.715Z,99485.40
2022-11-07T11:00:37.403Z,99488.83
2022-11-07T11:03:46.267Z,99487.45
2022-11-07T11:06:57.697Z,99490.55
2022-11-07T11:09:59.417Z,99488.66
2022-11-07T11:13:01.043Z,99486.40
2022-11-07T11:16:23.361Z,99487.42
2022-11-07T11:19:27.882Z,99489.39
2022-11-07T11:22:32.455Z,99500.63
2022-11-07T11:25:44.752Z,99501.84
2022-11-07T11:28:50.571Z,99501.59
2022-11-07T11:31:53.074Z,99503.29
2022-11-07T11:35:28.644Z,99501.59
2022-11-07T11:38:37.882Z,99504.51
2022-11-07T11:41:51.848Z,99506.45
2022-11-07T11:44:56.328Z,99505.80
2022-11-07T11:48:15.380Z,99502.80
2022-11-07T11:51:29.457Z,99504.89
2022-11-07T11:54:31.140Z,99498.94
2022-11-07T11:57:39.999Z,99503.38
2022-11-07T12:01:04.152Z,99502.27
2022-11-07T12:04:31.043Z,99509.45
2022-11-07T12:07:39.507Z,99506.50
2022-11-07T12:10:46.000Z,99505.13
2022-11-07T12:13:52.719Z,99510.91
2022-11-07T12:17:23.431Z,99505.82
2022-11-07T12:20:44.684Z,99506.28
2022-11-07T12:24:09.010Z,99503.73
2022-11-07T12:27:33.201Z,99498.45
2022-11-07T12:30:50.385Z,99494.97
2022-11-07T12:34:04.380Z,99495.31
2022-11-07T12:37:34.051Z,99495.34
2022-11-07T12:41:00.537Z,99497.80
2022-11-07T12:44:10.701Z,99502.09
2022-11-07T12:47:22.090Z,99507.02
2022-11-07T12:50:29.352Z,99512.14
2022-11-07T12:53:55.046Z,99515.41
2022-11-07T12:56:57.768Z,99515.02
2022-11-07T13:00:07.873Z,99513.88
2022-11-07T13:03:21.294Z,99515.83
2022-11-07T13:06:32.786Z,99516.60
2022-11-07T13:09:37.663Z,99518.27
2022-11-07T13:12:39.380Z,99517.84
2022-11-07T13:16:09.074Z,99517.90
2022-11-07T13:19:29.355Z,99516.33
2022-11-07T13:22:39.149Z,99512.32
2022-11-07T13:25:40.988Z,99515.05
2022-11-07T13:29:02.544Z,99513.64
2022-11-07T13:32:09.887Z,99515.23
2022-11-07T13:35:23.735Z,99515.86
2022-11-07T13:38:26.585Z,99511.50
2022-11-07T13:41:28.947Z,99521.63
2022-11-07T13:44:36.609Z,99525.52
2022-11-07T13:47:41.032Z,99534.83
2022-11-07T13:50:48.520Z,99534.14
2022-11-07T13:54:12.256Z,99530.57
2022-11-07T13:57:19.091Z,99537.86
2022-11-07T14:00:21.559Z,99537.98
2022-11-07T14:03:29.228Z,99543.11
2022-11-07T14:06:32.206Z,99549.11
2022-11-07T14:09:34.008Z,99549.73
2022-11-07T14:12:37.992Z,99555.44
2022-11-07T14:15:53.977Z,99556.52
2022-11-07T14:19:01.089Z,99556.85
2022-11-07T14:22:02.937Z,99558.42
2022-11-07T14:25:21.010Z,99563.09
2022-11-07T14:28:22.884Z,99564.20
2022-11-07T14:31:29.427Z,99561.82
2022-11-07T14:34:31.415Z,99568.70
2022-11-07T14:37:33.894Z,99576.37
2022-11-07T14:40:36.315Z,99578.47
2022-11-07T14:43:38.030Z,99585.41
2022-11-07T14:46:39.800Z,99585.29
2022-11-07T14:49:43.979Z,99593.61
2022-11-07T14:53:09.228Z,99594.75
2022-11-07T14:56:13.716Z,99599.98
2022-11-07T14:59:16.706Z,99602.65
2022-11-07T15:02:30.689Z,99598.73
2022-11-07T15:05:38.270Z,99600.17
2022-11-07T15:08:39.960Z,99603.05
2022-11-07T15:11:55.416Z,99605.73
2022-11-07T15:15:20.587Z,99605.73
2022-11-07T15:18:26.394Z,99609.23
2022-11-07T15:21:36.371Z,99606.92
2022-11-07T15:24:45.545Z,99606.80
2022-11-07T15:27:47.330Z,99606.77
2022-11-07T15:30:49.811Z,99603.38
2022-11-07T15:33:57.257Z,99607.79
2022-11-07T15:36:59.128Z,99603.90
2022-11-07T15:40:00.966Z,99612.39
2022-11-07T15:43:02.816Z,99610.71
2022-11-07T15:46:22.492Z,99616.65
2022-11-07T15:49:25.911Z,99616.41
2022-11-07T15:52:27.575Z,99615.02
2022-11-07T15:55:29.335Z,99619.05
2022-11-07T15:58:31.198Z,99620.76
2022-11-07T16:01:33.024Z,99626.92
2022-11-07T16:04:39.434Z,99630.80
2022-11-07T16:07:42.949Z,99632.71
2022-11-07T16:10:50.676Z,99633.48
2022-11-07T16:13:59.351Z,99636.25
2022-11-07T16:17:05.785Z,99639.97
2022-11-07T16:20:16.855Z,99643.05
2022-11-07T16:23:18.957Z,99640.77
2022-11-07T16:26:28.079Z,99643.21
2022-11-07T16:29:29.746Z,99641.44
2022-11-07T16:32:31.385Z,99644.51
2022-11-07T16:35:33.028Z,99641.89
2022-11-07T16:38:36.718Z,99642.23
2022-11-07T16:41:38.423Z,99640.33
2022-11-07T16:44:40.491Z,99643.52
2022-11-07T16:47:44.131Z,99647.75
2022-11-07T16:50:45.998Z,99651.85
2022-11-07T16:53:47.819Z,99653.36
2022-11-07T16:56:53.103Z,99658.11
2022-11-07T16:59:54.768Z,99659.52
2022-11-07T17:02:56.549Z,99659.42
2022-11-07T17:06:00.462Z,99663.64
2022-11-07T17:09:10.609Z,99664.70
2022-11-07T17:12:18.321Z,99669.35
2022-11-07T17:15:19.944Z,99666.52
2022-11-07T17:18:23.036Z,99668.17
2022-11-07T17:21:33.447Z,99671.14
2022-11-07T17:24:35.116Z,99667.70
2022-11-07T17:27:39.153Z,99665.45
2022-11-07T17:30:41.450Z,99670.59
2022-11-07T17:33:43.578Z,99675.39
2022-11-07T17:36:48.441Z,99675.91
2022-11-07T17:39:50.365Z,99680.55
2022-11-07T17:42:52.178Z,99678.88
2022-11-07T17:45:53.802Z,99674.89
2022-11-07T17:48:57.786Z,99673.34
2022-11-07T17:51:59.444Z,99676.75
2022-11-07T17:55:01.321Z,99676.77
2022-11-07T17:58:03.049Z,99677.72
2022-11-07T18:01:04.949Z,99677.55
2022-11-07T18:04:08.186Z,99681.73
2022-11-07T18:07:10.467Z,99677.30
2022-11-07T18:10:15.503Z,99682.95
2022-11-07T18:13:17.205Z,99684.29
2022-11-07T18:16:28.435Z,99679.27
2022-11-07T18:19:30.223Z,99681.43
2022-11-07T18:22:32.041Z,99681.62
2022-11-07T18:25:33.721Z,99681.31
2022-11-07T18:28:36.860Z,99683.20
2022-11-07T18:31:41.408Z,99672.79
2022-11-07T18:34:43.147Z,99673.70
2022-11-07T18:37:44.876Z,99671.68
2022-11-07T18:41:01.077Z,99671.02
2022-11-07T18:44:05.106Z,99676.41
2022-11-07T18:47:07.062Z,99673.89
2022-11-07T18:50:09.250Z,99677.36
2022-11-07T18:53:11.269Z,99676.11
2022-11-07T18:56:14.001Z,99672.05
2022-11-07T18:59:15.697Z,99680.34
2022-11-07T19:02:17.689Z,99679.02
2022-11-07T19:05:20.467Z,99680.02
2022-11-07T19:08:22.172Z,99678.17
2022-11-07T19:11:29.228Z,99682.40
2022-11-07T19:14:31.589Z,99682.81
2022-11-07T19:17:33.640Z,99686.35
2022-11-07T19:20:39.507Z,99692.17
2022-11-07T19:23:41.682Z,99697.45
2022-11-07T19:26:43.497Z,99693.92
2022-11-07T19:29:45.347Z,99697.05
2022-11-07T19:32:48.235Z,99702.89
2022-11-07T19:35:59.484Z,99702.40
2022-11-07T19:39:03.040Z,99705.95
2022-11-07T19:42:04.926Z,99711.11
2022-11-07T19:45:07.260Z,99711.75
2022-11-07T19:48:08.939Z,99713.89
2022-11-07T19:51:16.814Z,99712.13
2022-11-07T19:54:21.785Z,99709.42
2022-11-07T19:57:23.557Z,99712.71
2022-11-07T20:00:26.399Z,99714.56
2022-11-07T20:03:28.089Z,99713.87
2022-11-07T20:06:32.189Z,99712.34
2022-11-07T20:09:33.997Z,99720.95
2022-11-07T20:12:35.760Z,99718.45
2022-11-07T20:15:39.787Z,99720.25
2022-11-07T20:18:41.850Z,99718.34
2022-11-07T20:21:44.291Z,99720.92
2022-11-07T20:24:46.176Z,99725.21
2022-11-07T20:27:47.859Z,99725.90
2022-11-07T20:30:49.780Z,99729.96
2022-11-07T20:33:51.633Z,99732.29
2022-11-07T20:36:54.053Z,99732.20
2022-11-07T20:39:55.708Z,99727.14
2022-11-07T20:42:57.445Z,99731.25
2022-11-07T20:46:05.445Z,99733.96
2022-11-07T20:49:09.154Z,99738.48
2022-11-07T20:52:10.811Z,99740.66
2022-11-07T20:55:12.317Z,99740.27
2022-11-07T20:58:14.615Z,99745.00
2022-11-07T21:01:25.831Z,99744.35
2022-11-07T21:04:27.881Z,99742.48
2022-11-07T21:07:29.580Z,99745.84
2022-11-07T21:10:31.193Z,99749.88
2022-11-07T21:13:33.493Z,99753.52
2022-11-07T21:16:35.299Z,99759.55
2022-11-07T21:19:36.867Z,99760.89
2022-11-07T21:22:38.654Z,99756.91
2022-11-07T21:25:43.941Z,99759.71
2022-11-07T21:28:45.807Z,99758.13
2022-11-07T21:31:47.485Z,99757.83
2022-11-07T21:34:49.504Z,99762.95
2022-11-07T21:37:51.097Z,99765.98
2022-11-07T21:40:53.250Z,99771.88
2022-11-07T21:43:55.101Z,99767.58
2022-11-07T21:46:56.864Z,99764.70
2022-11-07T21:49:59.938Z,99765.02
2022-11-07T21:53:01.576Z,99768.25
2022-11-07T21:56:03.454Z,99768.02
2022-11-07T21:59:11.155Z,99768.79
2022-11-07T22:02:13.585Z,99767.70
2022-11-07T22:05:15.465Z,99764.13
2022-11-07T22:08:22.550Z,99764.89
2022-11-07T22:11:25.428Z,99762.61
2022-11-07T22:14:27.589Z,99761.31
2022-11-07T22:17:29.248Z,99763.67
2022-11-07T22:20:30.822Z,99768.42
2022-11-07T22:23:37.153Z,99769.56
2022-11-07T22:26:38.893Z,99769.71
2022-11-07T22:29:40.492Z,99769.45
2022-11-07T22:32:42.199Z,99770.95
2022-11-07T22:35:43.880Z,99773.56
2022-11-07T22:38:45.636Z,99771.64
2022-11-07T22:41:47.289Z,99771.99
2022-11-07T22:44:48.974Z,99765.10
2022-11-07T22:47:50.598Z,99771.18
2022-11-07T22:50:52.353Z,99769.85
2022-11-07T22:54:05.555Z,99771.69
2022-11-07T22:57:07.211Z,99770.75
2022-11-07T23:00:21.001Z,99766.45
2022-11-07T23:03:23.599Z,99760.30
2022-11-07T23:06:25.673Z,99760.66
2022-11-07T23:09:27.245Z,99758.17
2022-11-07T23:12:28.886Z,99760.27
2022-11-07T23:15:32.151Z,99751.73
2022-11-07T23:18:34.062Z,99753.52
2022-11-07T23:21:36.069Z,99755.04
2022-11-07T23:24:38.438Z,99752.79
2022-11-07T23:27:40.403Z,99754.73
2022-11-07T23:30:42.276Z,99759.19
2022-11-07T23:33:44.657Z,99757.70
2022-11-07T23:36:46.470Z,99759.02
2022-11-07T23:39:48.193Z,99760.32
2022-11-07T23:42:51.077Z,99763.84
2022-11-07T23:46:11.552Z,99765.79
2022-11-07T23:49:32.028Z,99762.61
2022-11-07T23:52:33.636Z,99764.80
2022-11-07T23:55:41.426Z,99763.95
2022-11-07T23:59:02.287Z,99762.92
